createdAt,value
2023-03-27T00:01:33.154Z,99098.64
2023-03-27T00:04:01.280Z,99091.46
2023-03-27T00:06:29.317Z,99070.73
2023-03-27T00:08:57.298Z,99080.48
2023-03-27T00:11:25.541Z,99080.06
2023-03-27T00:13:55.073Z,99080.56
2023-03-27T00:16:27.007Z,99075.89
2023-03-27T00:18:55.664Z,99079.38
2023-03-27T00:21:23.758Z,99076.85
2023-03-27T00:23:52.550Z,99082.05
2023-03-27T00:26:24.222Z,99081.27
2023-03-27T00:28:52.920Z,99080.58
2023-03-27T00:31:21.518Z,99081.48
2023-03-27T00:33:49.858Z,99070.73
2023-03-27T00:36:17.822Z,99078.50
2023-03-27T00:38:45.948Z,99073.04
2023-03-27T00:41:14.219Z,99075.71
2023-03-27T00:43:44.124Z,99079.23
2023-03-27T00:46:15.759Z,99081.17
2023-03-27T00:48:48.311Z,99077.57
2023-03-27T00:51:18.469Z,99078.68
2023-03-27T00:53:48.369Z,99072.57
2023-03-27T00:56:18.051Z,99070.09
2023-03-27T00:58:52.839Z,99070.14
2023-03-27T01:01:23.499Z,99075.34
2023-03-27T01:03:54.076Z,99070.98
2023-03-27T01:06:23.008Z,99072.32
2023-03-27T01:08:51.874Z,99073.98
2023-03-27T01:11:27.073Z,99068.45
2023-03-27T01:14:01.433Z,99073.61
2023-03-27T01:16:59.938Z,99074.70
2023-03-27T01:19:58.317Z,99077.98
2023-03-27T01:23:05.087Z,99078.48
2023-03-27T01:25:42.327Z,99077.43
2023-03-27T01:28:44.460Z,99075.98
2023-03-27T01:31:41.566Z,99075.04
2023-03-27T01:34:45.118Z,99071.09
2023-03-27T01:37:28.720Z,99071.59
2023-03-27T01:40:04.178Z,99077.09
2023-03-27T01:42:44.540Z,99080.38
2023-03-27T01:45:29.343Z,99083.40
2023-03-27T01:48:19.142Z,99085.91
2023-03-27T01:50:52.256Z,99089.11
2023-03-27T01:53:23.828Z,99095.64
2023-03-27T01:55:58.701Z,99095.21
2023-03-27T01:58:33.290Z,99094.46
2023-03-27T02:01:03.395Z,99098.30
2023-03-27T02:03:36.831Z,99099.70
2023-03-27T02:06:13.969Z,99091.52
2023-03-27T02:08:57.602Z,99087.09
2023-03-27T02:11:31.146Z,99085.95
2023-03-27T02:14:23.436Z,99085.23
2023-03-27T02:16:58.521Z,99086.05
2023-03-27T02:19:36.022Z,99085.11
2023-03-27T02:22:05.234Z,99079.91
2023-03-27T02:24:43.664Z,99078.88
2023-03-27T02:27:48.006Z,99076.95
2023-03-27T02:30:19.462Z,99082.13
2023-03-27T02:32:48.226Z,99082.97
2023-03-27T02:35:38.009Z,99085.30
2023-03-27T02:38:41.317Z,99086.21
2023-03-27T02:41:22.396Z,99086.61
2023-03-27T02:44:05.849Z,99084.96
2023-03-27T02:47:19.293Z,99084.93
2023-03-27T02:49:53.332Z,99083.41
2023-03-27T02:52:31.292Z,99085.30
2023-03-27T02:55:06.810Z,99084.21
2023-03-27T02:57:52.313Z,99086.13
2023-03-27T03:00:49.045Z,99088.40
2023-03-27T03:03:53.892Z,99091.80
2023-03-27T03:06:42.629Z,99092.40
2023-03-27T03:09:11.314Z,99090.01
2023-03-27T03:11:48.749Z,99091.97
2023-03-27T03:14:21.026Z,99098.11
2023-03-27T03:16:49.182Z,99097.84
2023-03-27T03:19:17.194Z,99091.05
2023-03-27T03:21:49.603Z,99094.00
2023-03-27T03:24:19.071Z,99094.41
2023-03-27T03:26:50.169Z,99091.06
2023-03-27T03:29:21.976Z,99084.77
2023-03-27T03:32:06.448Z,99084.47
2023-03-27T03:34:34.821Z,99085.98
2023-03-27T03:37:02.862Z,99090.90
2023-03-27T03:39:32.099Z,99091.20
2023-03-27T03:42:00.494Z,99090.61
2023-03-27T03:44:28.676Z,99092.45
2023-03-27T03:46:57.212Z,99094.95
2023-03-27T03:49:25.297Z,99096.75
2023-03-27T03:52:04.465Z,99086.91
2023-03-27T03:54:33.893Z,99104.86
2023-03-27T03:57:03.523Z,99108.15
2023-03-27T03:59:32.218Z,99109.21
2023-03-27T04:02:28.949Z,99070.72
2023-03-27T04:05:10.524Z,99107.48
2023-03-27T04:07:41.293Z,99103.73
2023-03-27T04:10:29.744Z,99105.14
2023-03-27T04:12:59.797Z,99111.96
2023-03-27T04:15:33.497Z,99111.96
2023-03-27T04:18:10.593Z,99112.98
2023-03-27T04:20:39.051Z,99114.25
2023-03-27T04:23:09.991Z,99121.45
2023-03-27T04:25:40.466Z,99125.90
2023-03-27T04:28:10.412Z,99125.14
2023-03-27T04:30:44.474Z,99126.29
2023-03-27T04:33:19.320Z,99124.80
2023-03-27T04:36:05.955Z,99122.98
2023-03-27T04:38:55.735Z,99119.74
2023-03-27T04:41:24.106Z,99125.82
2023-03-27T04:43:52.055Z,99130.21
2023-03-27T04:46:20.105Z,99137.67
2023-03-27T04:48:52.225Z,99140.91
2023-03-27T04:51:32.426Z,99142.75
2023-03-27T04:54:04.966Z,99140.73
2023-03-27T04:56:36.649Z,99143.95
2023-03-27T04:59:06.157Z,99141.98
2023-03-27T05:01:34.220Z,99147.98
2023-03-27T05:04:05.134Z,99153.64
2023-03-27T05:06:49.507Z,99153.39
2023-03-27T05:09:18.183Z,99149.73
2023-03-27T05:11:49.750Z,99154.68
2023-03-27T05:14:20.044Z,99151.45
2023-03-27T05:16:52.477Z,99149.77
2023-03-27T05:19:21.097Z,99152.40
2023-03-27T05:21:57.003Z,99152.08
2023-03-27T05:24:25.109Z,99153.70
2023-03-27T05:26:54.383Z,99152.31
2023-03-27T05:29:22.488Z,99157.88
2023-03-27T05:31:58.138Z,99161.63
2023-03-27T05:34:56.643Z,99164.64
2023-03-27T05:37:27.460Z,99162.48
2023-03-27T05:40:22.295Z,99167.46
2023-03-27T05:42:51.509Z,99169.77
2023-03-27T05:45:19.863Z,99169.39
2023-03-27T05:47:53.779Z,99168.58
2023-03-27T05:50:25.480Z,99172.64
2023-03-27T05:52:59.435Z,99174.16
2023-03-27T05:55:37.236Z,99180.31
2023-03-27T05:58:10.282Z,99184.66
2023-03-27T06:00:42.278Z,99188.03
2023-03-27T06:03:12.850Z,99189.11
2023-03-27T06:06:12.457Z,99187.16
2023-03-27T06:08:42.470Z,99186.14
2023-03-27T06:11:12.048Z,99179.21
2023-03-27T06:13:46.467Z,99193.13
2023-03-27T06:16:21.184Z,99200.50
2023-03-27T06:18:52.448Z,99200.95
2023-03-27T06:21:22.627Z,99203.30
2023-03-27T06:23:51.247Z,99209.63
2023-03-27T06:26:20.144Z,99220.23
2023-03-27T06:28:48.695Z,99220.42
2023-03-27T06:31:17.716Z,99225.81
2023-03-27T06:34:03.527Z,99225.67
2023-03-27T06:36:43.170Z,99228.36
2023-03-27T06:39:12.443Z,99228.00
2023-03-27T06:41:43.279Z,99226.77
2023-03-27T06:44:19.255Z,99234.15
2023-03-27T06:47:14.288Z,99239.54
2023-03-27T06:50:07.692Z,99240.52
2023-03-27T06:52:37.161Z,99242.61
2023-03-27T06:55:19.097Z,99242.81
2023-03-27T06:57:55.210Z,99247.85
2023-03-27T07:00:29.223Z,99247.55
2023-03-27T07:03:15.912Z,99250.59
2023-03-27T07:05:55.772Z,99251.65
2023-03-27T07:08:27.139Z,99256.61
2023-03-27T07:11:10.772Z,99257.84
2023-03-27T07:13:42.629Z,99258.80
2023-03-27T07:16:17.407Z,99257.74
2023-03-27T07:18:46.210Z,99257.87
2023-03-27T07:21:16.074Z,99262.12
2023-03-27T07:23:45.828Z,99248.28
2023-03-27T07:26:17.362Z,99270.89
2023-03-27T07:29:00.827Z,99275.90
2023-03-27T07:31:50.969Z,99279.15
2023-03-27T07:34:18.027Z,99280.27
2023-03-27T07:37:16.104Z,99280.32
2023-03-27T07:40:07.084Z,99284.52
2023-03-27T07:42:35.489Z,99283.95
2023-03-27T07:45:07.122Z,99288.29
2023-03-27T07:47:37.954Z,99291.02
2023-03-27T07:50:11.412Z,99298.14
2023-03-27T07:52:45.062Z,99301.79
2023-03-27T07:55:18.303Z,99299.11
2023-03-27T07:58:02.460Z,99306.14
2023-03-27T08:00:35.498Z,99307.45
2023-03-27T08:03:15.028Z,99319.80
2023-03-27T08:05:53.090Z,99323.41
2023-03-27T08:08:21.192Z,99324.45
2023-03-27T08:10:57.779Z,99325.39
2023-03-27T08:13:28.092Z,99330.12
2023-03-27T08:16:19.801Z,99334.46
2023-03-27T08:18:49.911Z,99338.25
2023-03-27T08:21:18.660Z,99341.41
2023-03-27T08:23:49.644Z,99343.33
2023-03-27T08:26:36.477Z,99346.97
2023-03-27T08:29:08.399Z,99353.40
2023-03-27T08:31:36.747Z,99355.54
2023-03-27T08:34:06.433Z,99356.09
2023-03-27T08:36:42.361Z,99356.55
2023-03-27T08:39:11.250Z,99353.39
2023-03-27T08:41:55.336Z,99356.53
2023-03-27T08:44:31.349Z,99357.11
2023-03-27T08:47:18.738Z,99363.52
2023-03-27T08:50:22.363Z,99370.95
2023-03-27T08:52:54.080Z,99376.05
2023-03-27T08:55:40.519Z,99377.11
2023-03-27T08:58:21.768Z,99365.84
2023-03-27T09:01:04.610Z,99379.27
2023-03-27T09:03:41.423Z,99384.48
2023-03-27T09:06:16.932Z,99373.59
2023-03-27T09:08:57.150Z,99386.98
2023-03-27T09:11:45.016Z,99384.23
2023-03-27T09:14:26.143Z,99388.02
2023-03-27T09:16:57.116Z,99387.95
2023-03-27T09:19:56.292Z,99393.32
2023-03-27T09:22:41.033Z,99400.20
2023-03-27T09:25:24.189Z,99406.64
2023-03-27T09:28:24.249Z,99406.77
2023-03-27T09:31:17.353Z,99411.96
2023-03-27T09:33:45.585Z,99418.61
2023-03-27T09:36:13.994Z,99421.62
2023-03-27T09:38:46.567Z,99424.61
2023-03-27T09:41:22.880Z,99423.69
2023-03-27T09:44:03.897Z,99419.68
2023-03-27T09:46:36.638Z,99423.48
2023-03-27T09:49:17.406Z,99425.23
2023-03-27T09:51:58.300Z,99431.23
2023-03-27T09:54:53.523Z,99435.58
2023-03-27T09:57:32.325Z,99433.31
2023-03-27T10:00:15.660Z,99441.14
2023-03-27T10:02:48.745Z,99442.15
2023-03-27T10:05:22.352Z,99443.27
2023-03-27T10:07:54.816Z,99448.89
2023-03-27T10:10:32.772Z,99458.64
2023-03-27T10:13:11.922Z,99453.73
2023-03-27T10:15:44.995Z,99459.70
2023-03-27T10:18:25.284Z,99458.87
2023-03-27T10:20:57.121Z,99457.91
2023-03-27T10:23:30.048Z,99453.39
2023-03-27T10:26:00.987Z,99458.36
2023-03-27T10:28:46.739Z,99460.02
2023-03-27T10:31:30.669Z,99462.83
2023-03-27T10:34:36.756Z,99460.05
2023-03-27T10:37:32.332Z,99449.12
2023-03-27T10:40:33.201Z,99469.07
2023-03-27T10:43:12.943Z,99477.13
2023-03-27T10:45:54.428Z,99473.98
2023-03-27T10:48:38.142Z,99474.82
2023-03-27T10:51:39.426Z,99470.70
2023-03-27T10:54:26.794Z,99475.98
2023-03-27T10:57:04.370Z,99477.14
2023-03-27T10:59:53.996Z,99475.37
2023-03-27T11:02:38.722Z,99476.11
2023-03-27T11:05:23.905Z,99476.36
2023-03-27T11:08:03.151Z,99477.42
2023-03-27T11:10:36.756Z,99480.77
2023-03-27T11:13:14.810Z,99468.61
2023-03-27T11:15:49.605Z,99479.57
2023-03-27T11:18:45.711Z,99482.21
2023-03-27T11:21:20.060Z,99482.61
2023-03-27T11:23:58.725Z,99483.11
2023-03-27T11:26:36.925Z,99487.71
2023-03-27T11:29:21.466Z,99484.31
2023-03-27T11:31:54.746Z,99482.84
2023-03-27T11:34:40.918Z,99475.66
2023-03-27T11:37:54.300Z,99477.06
2023-03-27T11:40:35.384Z,99476.04
2023-03-27T11:43:04.120Z,99478.48
2023-03-27T11:45:44.968Z,99474.98
2023-03-27T11:48:22.795Z,99472.30
2023-03-27T11:50:58.665Z,99468.68
2023-03-27T11:54:05.879Z,99468.48
2023-03-27T11:56:59.401Z,99464.51
2023-03-27T12:00:06.929Z,99459.27
2023-03-27T12:03:02.657Z,99480.81
2023-03-27T12:05:43.110Z,99474.27
2023-03-27T12:08:17.015Z,99475.73
2023-03-27T12:10:49.833Z,99473.83
2023-03-27T12:13:42.766Z,99466.13
2023-03-27T12:16:37.870Z,99472.26
2023-03-27T12:19:28.567Z,99471.45
2023-03-27T12:22:52.235Z,99470.52
2023-03-27T12:25:49.659Z,99461.74
2023-03-27T12:28:53.339Z,99477.29
2023-03-27T12:31:45.288Z,99480.79
2023-03-27T12:34:26.062Z,99470.54
2023-03-27T12:36:54.616Z,99482.36
2023-03-27T12:39:28.898Z,99481.89
2023-03-27T12:42:13.200Z,99485.05
2023-03-27T12:45:05.756Z,99484.30
2023-03-27T12:47:33.965Z,99481.61
2023-03-27T12:50:19.517Z,99485.34
2023-03-27T12:52:47.824Z,99489.70
2023-03-27T12:55:19.025Z,99486.21
2023-03-27T12:57:53.949Z,99492.15
2023-03-27T13:00:40.879Z,99493.86
2023-03-27T13:04:08.036Z,99498.45
2023-03-27T13:06:44.854Z,99501.95
2023-03-27T13:09:49.259Z,99506.73
2023-03-27T13:12:37.431Z,99512.35
2023-03-27T13:15:31.758Z,99518.72
2023-03-27T13:18:45.817Z,99512.61
2023-03-27T13:21:42.515Z,99531.27
2023-03-27T13:24:45.015Z,99533.42
2023-03-27T13:27:53.274Z,99537.42
2023-03-27T13:30:47.274Z,99541.48
2023-03-27T13:34:41.323Z,99540.59
2023-03-27T13:37:16.384Z,99547.23
2023-03-27T13:39:56.271Z,99552.06
2023-03-27T13:42:35.527Z,99560.90
2023-03-27T13:45:22.182Z,99570.04
2023-03-27T13:48:43.706Z,99582.11
2023-03-27T13:51:24.664Z,99590.64
2023-03-27T13:54:06.938Z,99593.43
2023-03-27T13:56:52.590Z,99595.04
2023-03-27T13:59:49.424Z,99603.80
2023-03-27T14:02:40.750Z,99611.55
2023-03-27T14:05:18.087Z,99615.61
2023-03-27T14:08:06.059Z,99619.20
2023-03-27T14:11:32.269Z,99621.90
2023-03-27T14:14:23.871Z,99629.02
2023-03-27T14:17:02.199Z,99637.33
2023-03-27T14:19:51.861Z,99644.98
2023-03-27T14:22:28.177Z,99646.66
2023-03-27T14:25:02.933Z,99645.73
2023-03-27T14:27:56.040Z,99644.44
2023-03-27T14:30:32.796Z,99648.58
2023-03-27T14:33:24.917Z,99647.69
2023-03-27T14:36:04.074Z,99650.95
2023-03-27T14:38:37.399Z,99659.66
2023-03-27T14:41:17.644Z,99673.82
2023-03-27T14:43:52.631Z,99684.00
2023-03-27T14:46:24.644Z,99687.90
2023-03-27T14:48:58.176Z,99688.92
2023-03-27T14:51:38.118Z,99683.19
2023-03-27T14:54:14.080Z,99689.27
2023-03-27T14:56:51.647Z,99696.45
2023-03-27T14:59:40.321Z,99703.67
2023-03-27T15:02:23.689Z,99711.45
2023-03-27T15:04:58.288Z,99716.39
2023-03-27T15:07:30.809Z,99721.09
2023-03-27T15:10:24.437Z,99724.42
2023-03-27T15:13:35.527Z,99729.87
2023-03-27T15:16:06.884Z,99735.71
2023-03-27T15:19:12.553Z,99741.20
2023-03-27T15:22:00.594Z,99749.24
2023-03-27T15:24:37.240Z,99754.90
2023-03-27T15:27:10.086Z,99761.53
2023-03-27T15:29:43.263Z,99754.28
2023-03-27T15:32:15.037Z,99769.64
2023-03-27T15:35:05.570Z,99776.07
2023-03-27T15:37:35.079Z,99775.17
2023-03-27T15:40:15.778Z,99772.15
2023-03-27T15:42:47.134Z,99782.96
2023-03-27T15:45:17.460Z,99785.87
2023-03-27T15:48:01.258Z,99787.49
2023-03-27T15:50:29.634Z,99790.41
2023-03-27T15:53:01.699Z,99773.65
2023-03-27T15:55:37.934Z,99796.54
2023-03-27T15:58:29.840Z,99798.16
2023-03-27T16:01:01.142Z,99805.55
2023-03-27T16:03:35.176Z,99807.12
2023-03-27T16:06:05.108Z,99807.45
2023-03-27T16:08:41.678Z,99811.83
2023-03-27T16:11:11.221Z,99811.55
2023-03-27T16:13:56.178Z,99811.02
2023-03-27T16:16:27.418Z,99813.83
2023-03-27T16:18:59.979Z,99816.13
2023-03-27T16:21:34.181Z,99810.55
2023-03-27T16:24:04.114Z,99832.31
2023-03-27T16:26:32.872Z,99833.94
2023-03-27T16:29:04.711Z,99842.78
2023-03-27T16:31:33.033Z,99849.60
2023-03-27T16:34:01.389Z,99859.77
2023-03-27T16:36:31.922Z,99871.23
2023-03-27T16:39:07.125Z,99879.58
2023-03-27T16:41:35.468Z,99883.05
2023-03-27T16:44:03.987Z,99883.98
2023-03-27T16:46:32.911Z,99892.85
2023-03-27T16:49:01.084Z,99897.20
2023-03-27T16:51:30.075Z,99901.65
2023-03-27T16:53:57.955Z,99904.31
2023-03-27T16:56:26.566Z,99909.92
2023-03-27T16:58:55.358Z,99917.48
2023-03-27T17:01:26.224Z,99916.64
2023-03-27T17:03:54.464Z,99918.73
2023-03-27T17:06:22.948Z,99927.77
2023-03-27T17:08:55.962Z,99935.90
2023-03-27T17:11:24.953Z,99940.38
2023-03-27T17:13:53.906Z,99947.30
2023-03-27T17:16:22.184Z,99953.56
2023-03-27T17:18:51.936Z,99937.14
2023-03-27T17:21:24.977Z,99963.13
2023-03-27T17:23:55.124Z,99963.55
2023-03-27T17:26:25.510Z,99970.02
2023-03-27T17:28:55.556Z,99970.41
2023-03-27T17:31:25.034Z,99976.36
2023-03-27T17:33:53.170Z,99980.73
2023-03-27T17:36:33.110Z,99987.64
2023-03-27T17:39:08.169Z,99994.23
2023-03-27T17:41:36.405Z,99998.24
2023-03-27T17:44:06.197Z,100002.94
2023-03-27T17:46:36.597Z,100007.52
2023-03-27T17:49:05.352Z,100012.41
2023-03-27T17:51:35.445Z,100024.39
2023-03-27T17:54:04.879Z,100024.58
2023-03-27T17:56:33.069Z,100027.71
2023-03-27T17:59:01.165Z,100024.87
2023-03-27T18:01:29.269Z,100027.52
2023-03-27T18:04:00.562Z,100031.13
2023-03-27T18:06:28.731Z,100038.23
2023-03-27T18:08:57.175Z,100049.34
2023-03-27T18:11:26.043Z,100058.35
2023-03-27T18:13:54.125Z,100025.28
2023-03-27T18:16:23.224Z,100061.34
2023-03-27T18:18:54.327Z,100067.36
2023-03-27T18:21:22.392Z,100062.77
2023-03-27T18:23:53.337Z,100065.12
2023-03-27T18:26:21.912Z,100064.52
2023-03-27T18:28:49.799Z,100067.52
2023-03-27T18:31:18.336Z,100078.81
2023-03-27T18:33:46.564Z,100064.52
2023-03-27T18:36:17.079Z,100080.78
2023-03-27T18:38:46.298Z,100087.55
2023-03-27T18:41:15.684Z,100079.99
2023-03-27T18:43:43.576Z,100089.05
2023-03-27T18:46:17.012Z,100089.51
2023-03-27T18:48:48.703Z,100094.14
2023-03-27T18:51:19.921Z,100090.45
2023-03-27T18:53:50.624Z,100092.11
2023-03-27T18:56:18.755Z,100095.09
2023-03-27T18:58:47.641Z,100100.05
2023-03-27T19:01:16.107Z,100096.98
2023-03-27T19:03:47.517Z,100100.53
2023-03-27T19:06:18.384Z,100102.78
2023-03-27T19:08:46.563Z,100102.94
2023-03-27T19:11:14.560Z,100104.80
2023-03-27T19:14:01.745Z,100107.49
2023-03-27T19:16:44.824Z,100108.98
2023-03-27T19:19:32.184Z,100110.67
2023-03-27T19:22:18.901Z,100107.70
2023-03-27T19:24:52.162Z,100113.45
2023-03-27T19:27:23.675Z,100117.57
2023-03-27T19:29:54.113Z,100119.59
2023-03-27T19:32:24.274Z,100125.35
2023-03-27T19:34:52.554Z,100129.02
2023-03-27T19:37:20.778Z,100130.36
2023-03-27T19:39:50.993Z,100135.45
2023-03-27T19:42:19.855Z,100135.65
2023-03-27T19:44:48.114Z,100134.94
2023-03-27T19:47:16.335Z,100135.07
2023-03-27T19:49:44.329Z,100140.33
2023-03-27T19:52:20.143Z,100124.16
2023-03-27T19:54:48.111Z,100139.67
2023-03-27T19:57:16.298Z,100142.77
2023-03-27T19:59:44.633Z,100143.09
2023-03-27T20:02:13.317Z,100143.25
2023-03-27T20:04:41.628Z,100144.83
2023-03-27T20:07:10.443Z,100148.89
2023-03-27T20:09:38.700Z,100149.91
2023-03-27T20:12:07.066Z,100151.63
2023-03-27T20:14:35.433Z,100156.66
2023-03-27T20:17:05.023Z,100158.21
2023-03-27T20:19:34.922Z,100156.96
2023-03-27T20:22:05.248Z,100162.50
2023-03-27T20:24:33.233Z,100168.40
2023-03-27T20:27:02.235Z,100154.29
2023-03-27T20:29:30.776Z,100168.69
2023-03-27T20:31:58.824Z,100168.27
2023-03-27T20:34:26.983Z,100170.98
2023-03-27T20:36:59.249Z,100172.11
2023-03-27T20:39:38.927Z,100172.02
2023-03-27T20:42:07.844Z,100169.85
2023-03-27T20:44:35.857Z,100171.86
2023-03-27T20:47:12.361Z,100147.84
2023-03-27T20:49:44.132Z,100171.40
2023-03-27T20:52:15.588Z,100172.26
2023-03-27T20:54:43.800Z,100171.88
2023-03-27T20:57:13.012Z,100158.14
2023-03-27T20:59:41.196Z,100175.02
2023-03-27T21:02:16.618Z,100178.06
2023-03-27T21:04:45.231Z,100175.55
2023-03-27T21:07:13.561Z,100177.38
2023-03-27T21:09:42.996Z,100172.63
2023-03-27T21:12:11.251Z,100175.36
2023-03-27T21:14:39.226Z,100175.63
2023-03-27T21:17:07.189Z,100170.83
2023-03-27T21:19:35.502Z,100173.67
2023-03-27T21:22:03.418Z,100170.60
2023-03-27T21:24:31.608Z,100174.31
2023-03-27T21:27:00.316Z,100175.05
2023-03-27T21:29:28.286Z,100174.59
2023-03-27T21:31:56.289Z,100171.58
2023-03-27T21:34:24.814Z,100174.45
2023-03-27T21:36:52.797Z,100176.98
2023-03-27T21:39:21.394Z,100175.71
2023-03-27T21:41:49.532Z,100172.30
2023-03-27T21:44:17.511Z,100175.52
2023-03-27T21:46:45.832Z,100173.69
2023-03-27T21:49:13.968Z,100170.94
2023-03-27T21:51:41.969Z,100169.63
2023-03-27T21:54:10.038Z,100167.92
2023-03-27T21:56:38.161Z,100165.23
2023-03-27T21:59:06.052Z,100163.02
2023-03-27T22:01:34.078Z,100149.32
2023-03-27T22:04:02.520Z,100160.53
2023-03-27T22:06:30.500Z,100162.80
2023-03-27T22:08:58.535Z,100160.09
2023-03-27T22:11:26.729Z,100156.17
2023-03-27T22:13:54.971Z,100160.27
2023-03-27T22:16:23.129Z,100155.54
2023-03-27T22:18:51.319Z,100160.77
2023-03-27T22:21:25.414Z,100162.08
2023-03-27T22:23:55.191Z,100163.84
2023-03-27T22:26:26.815Z,100162.85
2023-03-27T22:28:55.015Z,100157.89
2023-03-27T22:31:24.549Z,100157.33
2023-03-27T22:33:53.228Z,100154.54
2023-03-27T22:36:21.850Z,100159.63
2023-03-27T22:38:50.173Z,100160.98
2023-03-27T22:41:18.241Z,100155.91
2023-03-27T22:43:49.279Z,100156.54
2023-03-27T22:46:20.561Z,100159.61
2023-03-27T22:48:56.514Z,100162.52
2023-03-27T22:51:25.574Z,100163.68
2023-03-27T22:53:53.642Z,100164.52
2023-03-27T22:56:21.687Z,100163.59
2023-03-27T22:58:50.118Z,100164.60
2023-03-27T23:01:18.655Z,100167.14
2023-03-27T23:03:47.001Z,100174.36
2023-03-27T23:06:24.357Z,100176.02
2023-03-27T23:08:52.640Z,100180.11
2023-03-27T23:11:20.696Z,100181.79
2023-03-27T23:13:49.087Z,100185.89
2023-03-27T23:16:17.063Z,100186.14
2023-03-27T23:18:45.089Z,100190.34
2023-03-27T23:21:16.917Z,100189.73
2023-03-27T23:23:45.510Z,100194.27
2023-03-27T23:26:13.788Z,100195.94
2023-03-27T23:28:42.700Z,100188.86
2023-03-27T23:31:20.245Z,100200.90
2023-03-27T23:33:50.908Z,100201.19
2023-03-27T23:36:21.715Z,100199.17
2023-03-27T23:38:51.716Z,100197.13
2023-03-27T23:41:20.710Z,100201.35
2023-03-27T23:43:49.311Z,100202.46
2023-03-27T23:46:17.792Z,100189.84
2023-03-27T23:48:46.172Z,100209.86
2023-03-27T23:51:16.168Z,100209.91
2023-03-27T23:53:44.639Z,100209.29
2023-03-27T23:56:13.089Z,100206.59
2023-03-27T23:58:41.301Z,100205.96
